Aviation Digital Data Service (ADDS)

Output produced by METARs form (0136 UTC 29 September 2016)
found at http://aviationweather.gov/adds/metars/
 
KBUF 282320Z 2900/2924 09008KT P6SM SCT090 
     FM290500 09011KT P6SM BKN080 
     FM290800 08010KT P6SM VCSH OVC060 
     FM291100 08012KT P6SM -SHRA OVC045 
     FM291500 08013G19KT 6SM -SHRA OVC015 
     FM292200 08013G19KT P6SM VCSH OVC035